sensor_id;sensor_type;location;lat;lon;timestamp;P1;durP1;ratioP1;P2;durP2;ratioP2
58338;SDS011;48278;52.704;6.536;2023-03-01T00:01:10;42.78;;;15.98;;
58338;SDS011;48278;52.704;6.536;2023-03-01T00:03:37;44.70;;;18.00;;
58338;SDS011;48278;52.704;6.536;2023-03-01T00:06:03;46.13;;;18.02;;
58338;SDS011;48278;52.704;6.536;2023-03-01T00:08:30;51.85;;;19.88;;
58338;SDS011;48278;52.704;6.536;2023-03-01T00:11:08;44.47;;;17.65;;
58338;SDS011;48278;52.704;6.536;2023-03-01T00:13:38;50.30;;;18.25;;
58338;SDS011;48278;52.704;6.536;2023-03-01T00:16:07;50.00;;;18.65;;
58338;SDS011;48278;52.704;6.536;2023-03-01T00:18:35;46.85;;;18.10;;
58338;SDS011;48278;52.704;6.536;2023-03-01T00:21:01;44.92;;;18.83;;
58338;SDS011;48278;52.704;6.536;2023-03-01T00:23:27;47.78;;;18.13;;
58338;SDS011;48278;52.704;6.536;2023-03-01T00:25:52;44.20;;;18.58;;
58338;SDS011;48278;52.704;6.536;2023-03-01T00:28:18;55.83;;;19.42;;
58338;SDS011;48278;52.704;6.536;2023-03-01T00:30:45;52.43;;;20.30;;
58338;SDS011;48278;52.704;6.536;2023-03-01T00:33:11;54.47;;;19.42;;
58338;SDS011;48278;52.704;6.536;2023-03-01T00:35:36;51.88;;;20.25;;
58338;SDS011;48278;52.704;6.536;2023-03-01T00:38:03;52.30;;;20.13;;
58338;SDS011;48278;52.704;6.536;2023-03-01T00:40:30;53.33;;;20.50;;
58338;SDS011;48278;52.704;6.536;2023-03-01T00:42:58;45.95;;;19.48;;
58338;SDS011;48278;52.704;6.536;2023-03-01T00:45:24;60.60;;;22.17;;
58338;SDS011;48278;52.704;6.536;2023-03-01T00:47:50;55.63;;;21.95;;
58338;SDS011;48278;52.704;6.536;2023-03-01T00:50:17;47.63;;;20.38;;
58338;SDS011;48278;52.704;6.536;2023-03-01T00:52:43;56.35;;;20.92;;
58338;SDS011;48278;52.704;6.536;2023-03-01T00:55:10;58.28;;;22.08;;
58338;SDS011;48278;52.704;6.536;2023-03-01T00:57:36;60.72;;;21.30;;
58338;SDS011;48278;52.704;6.536;2023-03-01T01:00:02;57.15;;;20.95;;
58338;SDS011;48278;52.704;6.536;2023-03-01T01:02:31;58.78;;;21.48;;
58338;SDS011;48278;52.704;6.536;2023-03-01T01:04:58;58.42;;;21.65;;
58338;SDS011;48278;52.704;6.536;2023-03-01T01:07:23;57.08;;;22.13;;
58338;SDS011;48278;52.704;6.536;2023-03-01T01:09:49;71.25;;;23.85;;
58338;SDS011;48278;52.704;6.536;2023-03-01T01:12:15;65.50;;;22.15;;
58338;SDS011;48278;52.704;6.536;2023-03-01T01:14:40;62.28;;;21.95;;
58338;SDS011;48278;52.704;6.536;2023-03-01T01:17:06;60.92;;;22.17;;
58338;SDS011;48278;52.704;6.536;2023-03-01T01:19:32;67.05;;;24.00;;
58338;SDS011;48278;52.704;6.536;2023-03-01T01:21:58;64.03;;;23.38;;
58338;SDS011;48278;52.704;6.536;2023-03-01T01:24:24;61.35;;;21.85;;
58338;SDS011;48278;52.704;6.536;2023-03-01T01:26:49;62.58;;;22.45;;
58338;SDS011;48278;52.704;6.536;2023-03-01T01:29:15;65.60;;;23.00;;
58338;SDS011;48278;52.704;6.536;2023-03-01T01:31:41;67.97;;;23.00;;
58338;SDS011;48278;52.704;6.536;2023-03-01T01:34:09;70.18;;;23.65;;
58338;SDS011;48278;52.704;6.536;2023-03-01T01:36:39;67.18;;;24.52;;
58338;SDS011;48278;52.704;6.536;2023-03-01T01:39:05;72.50;;;24.25;;
58338;SDS011;48278;52.704;6.536;2023-03-01T01:41:31;76.60;;;25.35;;
58338;SDS011;48278;52.704;6.536;2023-03-01T01:46:53;72.93;;;22.65;;
58338;SDS011;48278;52.704;6.536;2023-03-01T01:49:26;70.72;;;24.88;;
58338;SDS011;48278;52.704;6.536;2023-03-01T01:51:58;73.50;;;25.02;;
58338;SDS011;48278;52.704;6.536;2023-03-01T01:54:30;79.80;;;24.95;;
58338;SDS011;48278;52.704;6.536;2023-03-01T01:57:03;75.05;;;23.92;;
58338;SDS011;48278;52.704;6.536;2023-03-01T01:59:34;75.28;;;23.85;;
58338;SDS011;48278;52.704;6.536;2023-03-01T02:02:00;79.72;;;25.50;;
58338;SDS011;48278;52.704;6.536;2023-03-01T02:04:29;76.88;;;24.75;;
58338;SDS011;48278;52.704;6.536;2023-03-01T02:09:27;74.05;;;23.40;;
58338;SDS011;48278;52.704;6.536;2023-03-01T02:11:55;84.35;;;26.27;;
58338;SDS011;48278;52.704;6.536;2023-03-01T02:14:22;86.22;;;26.60;;
58338;SDS011;48278;52.704;6.536;2023-03-01T02:16:47;84.35;;;26.42;;
58338;SDS011;48278;52.704;6.536;2023-03-01T02:19:21;74.93;;;24.65;;
58338;SDS011;48278;52.704;6.536;2023-03-01T02:22:03;82.65;;;25.38;;
58338;SDS011;48278;52.704;6.536;2023-03-01T02:24:51;71.82;;;23.83;;
58338;SDS011;48278;52.704;6.536;2023-03-01T02:27:42;77.32;;;25.67;;
58338;SDS011;48278;52.704;6.536;2023-03-01T02:30:27;73.85;;;24.92;;
58338;SDS011;48278;52.704;6.536;2023-03-01T02:32:55;83.53;;;25.60;;
58338;SDS011;48278;52.704;6.536;2023-03-01T02:35:33;79.05;;;24.90;;
58338;SDS011;48278;52.704;6.536;2023-03-01T02:38:02;80.70;;;25.40;;
58338;SDS011;48278;52.704;6.536;2023-03-01T02:40:31;85.68;;;25.50;;
58338;SDS011;48278;52.704;6.536;2023-03-01T02:43:00;83.85;;;26.42;;
58338;SDS011;48278;52.704;6.536;2023-03-01T02:45:29;83.68;;;24.50;;
58338;SDS011;48278;52.704;6.536;2023-03-01T02:47:55;216.40;;;31.48;;
58338;SDS011;48278;52.704;6.536;2023-03-01T02:53:01;403.65;;;43.75;;
58338;SDS011;48278;52.704;6.536;2023-03-01T02:55:34;294.45;;;37.13;;
58338;SDS011;48278;52.704;6.536;2023-03-01T02:58:00;193.98;;;29.95;;
58338;SDS011;48278;52.704;6.536;2023-03-01T03:00:29;393.05;;;42.90;;
58338;SDS011;48278;52.704;6.536;2023-03-01T03:02:59;213.95;;;31.08;;
58338;SDS011;48278;52.704;6.536;2023-03-01T03:05:26;388.15;;;47.35;;
58338;SDS011;48278;52.704;6.536;2023-03-01T03:07:54;236.57;;;35.30;;
58338;SDS011;48278;52.704;6.536;2023-03-01T03:10:22;182.30;;;32.85;;
58338;SDS011;48278;52.704;6.536;2023-03-01T03:12:50;233.77;;;37.45;;
58338;SDS011;48278;52.704;6.536;2023-03-01T03:15:21;190.23;;;33.40;;
58338;SDS011;48278;52.704;6.536;2023-03-01T03:17:47;198.80;;;31.30;;
58338;SDS011;48278;52.704;6.536;2023-03-01T03:20:15;162.73;;;31.15;;
58338;SDS011;48278;52.704;6.536;2023-03-01T03:22:47;271.70;;;37.20;;
58338;SDS011;48278;52.704;6.536;2023-03-01T03:25:14;237.57;;;32.88;;
58338;SDS011;48278;52.704;6.536;2023-03-01T03:27:42;198.02;;;30.23;;
58338;SDS011;48278;52.704;6.536;2023-03-01T03:30:13;279.13;;;39.58;;
58338;SDS011;48278;52.704;6.536;2023-03-01T03:32:41;216.82;;;32.90;;
58338;SDS011;48278;52.704;6.536;2023-03-01T03:35:17;133.50;;;29.42;;
58338;SDS011;48278;52.704;6.536;2023-03-01T03:37:49;110.30;;;25.42;;
58338;SDS011;48278;52.704;6.536;2023-03-01T03:40:33;389.90;;;48.15;;
58338;SDS011;48278;52.704;6.536;2023-03-01T03:43:07;340.05;;;43.03;;
58338;SDS011;48278;52.704;6.536;2023-03-01T03:45:35;128.68;;;27.20;;
58338;SDS011;48278;52.704;6.536;2023-03-01T03:48:01;200.93;;;31.38;;
58338;SDS011;48278;52.704;6.536;2023-03-01T03:50:29;149.52;;;26.58;;
58338;SDS011;48278;52.704;6.536;2023-03-01T03:52:55;135.73;;;24.92;;
58338;SDS011;48278;52.704;6.536;2023-03-01T03:55:21;62.60;;;20.95;;
58338;SDS011;48278;52.704;6.536;2023-03-01T03:57:47;66.15;;;21.10;;
58338;SDS011;48278;52.704;6.536;2023-03-01T04:00:20;61.80;;;20.98;;
58338;SDS011;48278;52.704;6.536;2023-03-01T04:02:49;61.13;;;22.15;;
58338;SDS011;48278;52.704;6.536;2023-03-01T04:05:16;65.78;;;21.73;;
58338;SDS011;48278;52.704;6.536;2023-03-01T04:07:43;65.68;;;22.05;;
58338;SDS011;48278;52.704;6.536;2023-03-01T04:10:10;78.32;;;25.45;;
58338;SDS011;48278;52.704;6.536;2023-03-01T04:12:39;71.70;;;24.23;;
58338;SDS011;48278;52.704;6.536;2023-03-01T04:15:05;62.30;;;21.95;;
58338;SDS011;48278;52.704;6.536;2023-03-01T04:17:47;67.80;;;22.48;;
58338;SDS011;48278;52.704;6.536;2023-03-01T04:20:14;68.78;;;23.85;;
58338;SDS011;48278;52.704;6.536;2023-03-01T04:22:42;63.05;;;22.05;;
58338;SDS011;48278;52.704;6.536;2023-03-01T04:25:12;66.70;;;22.02;;
58338;SDS011;48278;52.704;6.536;2023-03-01T04:27:39;59.88;;;20.27;;
58338;SDS011;48278;52.704;6.536;2023-03-01T04:30:06;65.32;;;22.02;;
58338;SDS011;48278;52.704;6.536;2023-03-01T04:32:33;65.13;;;22.17;;
58338;SDS011;48278;52.704;6.536;2023-03-01T04:34:59;73.57;;;23.58;;
58338;SDS011;48278;52.704;6.536;2023-03-01T04:37:26;75.03;;;24.40;;
58338;SDS011;48278;52.704;6.536;2023-03-01T04:39:52;67.90;;;22.88;;
58338;SDS011;48278;52.704;6.536;2023-03-01T04:42:18;63.72;;;22.17;;
58338;SDS011;48278;52.704;6.536;2023-03-01T04:44:44;60.63;;;21.30;;
58338;SDS011;48278;52.704;6.536;2023-03-01T04:47:11;63.67;;;21.88;;
58338;SDS011;48278;52.704;6.536;2023-03-01T04:49:37;61.50;;;20.05;;
58338;SDS011;48278;52.704;6.536;2023-03-01T04:52:03;62.67;;;20.58;;
58338;SDS011;48278;52.704;6.536;2023-03-01T04:54:30;56.63;;;19.42;;
58338;SDS011;48278;52.704;6.536;2023-03-01T04:56:56;58.70;;;20.00;;
58338;SDS011;48278;52.704;6.536;2023-03-01T04:59:22;58.85;;;20.33;;
58338;SDS011;48278;52.704;6.536;2023-03-01T05:01:49;58.95;;;20.17;;
58338;SDS011;48278;52.704;6.536;2023-03-01T05:04:15;58.55;;;19.90;;
58338;SDS011;48278;52.704;6.536;2023-03-01T05:06:41;54.00;;;18.55;;
58338;SDS011;48278;52.704;6.536;2023-03-01T05:09:07;56.42;;;20.08;;
58338;SDS011;48278;52.704;6.536;2023-03-01T05:11:33;57.35;;;20.20;;
58338;SDS011;48278;52.704;6.536;2023-03-01T05:14:07;59.05;;;20.30;;
58338;SDS011;48278;52.704;6.536;2023-03-01T05:16:34;58.63;;;18.98;;
58338;SDS011;48278;52.704;6.536;2023-03-01T05:21:36;56.88;;;19.00;;
58338;SDS011;48278;52.704;6.536;2023-03-01T05:24:26;53.92;;;18.95;;
58338;SDS011;48278;52.704;6.536;2023-03-01T05:26:52;60.38;;;20.80;;
58338;SDS011;48278;52.704;6.536;2023-03-01T05:29:18;55.45;;;19.70;;
58338;SDS011;48278;52.704;6.536;2023-03-01T05:31:57;60.80;;;20.83;;
58338;SDS011;48278;52.704;6.536;2023-03-01T05:34:25;61.80;;;20.38;;
58338;SDS011;48278;52.704;6.536;2023-03-01T05:36:52;56.80;;;19.80;;
58338;SDS011;48278;52.704;6.536;2023-03-01T05:39:22;63.42;;;20.98;;
58338;SDS011;48278;52.704;6.536;2023-03-01T05:41:53;61.45;;;20.52;;
58338;SDS011;48278;52.704;6.536;2023-03-01T05:46:53;57.75;;;20.00;;
58338;SDS011;48278;52.704;6.536;2023-03-01T05:49:20;57.40;;;19.80;;
58338;SDS011;48278;52.704;6.536;2023-03-01T05:51:49;54.65;;;19.85;;
58338;SDS011;48278;52.704;6.536;2023-03-01T05:54:17;56.30;;;20.45;;
58338;SDS011;48278;52.704;6.536;2023-03-01T05:56:44;65.63;;;21.15;;
58338;SDS011;48278;52.704;6.536;2023-03-01T05:59:10;68.40;;;22.10;;
58338;SDS011;48278;52.704;6.536;2023-03-01T06:01:36;63.88;;;22.42;;
58338;SDS011;48278;52.704;6.536;2023-03-01T06:04:03;70.30;;;24.30;;
58338;SDS011;48278;52.704;6.536;2023-03-01T06:06:29;74.60;;;26.98;;
58338;SDS011;48278;52.704;6.536;2023-03-01T06:08:58;73.95;;;26.65;;
58338;SDS011;48278;52.704;6.536;2023-03-01T06:11:24;74.85;;;25.90;;
58338;SDS011;48278;52.704;6.536;2023-03-01T06:13:50;71.90;;;24.58;;
58338;SDS011;48278;52.704;6.536;2023-03-01T06:16:16;75.65;;;26.40;;
58338;SDS011;48278;52.704;6.536;2023-03-01T06:18:42;77.00;;;25.83;;
58338;SDS011;48278;52.704;6.536;2023-03-01T06:21:07;82.85;;;27.98;;
58338;SDS011;48278;52.704;6.536;2023-03-01T06:23:33;80.70;;;27.73;;
58338;SDS011;48278;52.704;6.536;2023-03-01T06:26:00;89.53;;;31.17;;
58338;SDS011;48278;52.704;6.536;2023-03-01T06:28:26;85.32;;;31.25;;
58338;SDS011;48278;52.704;6.536;2023-03-01T06:30:53;90.13;;;32.70;;
58338;SDS011;48278;52.704;6.536;2023-03-01T06:33:19;92.32;;;30.92;;
58338;SDS011;48278;52.704;6.536;2023-03-01T06:35:45;86.73;;;31.50;;
58338;SDS011;48278;52.704;6.536;2023-03-01T06:38:12;87.55;;;30.00;;
58338;SDS011;48278;52.704;6.536;2023-03-01T06:40:40;80.50;;;25.52;;
58338;SDS011;48278;52.704;6.536;2023-03-01T06:43:06;67.03;;;22.67;;
58338;SDS011;48278;52.704;6.536;2023-03-01T06:45:32;71.47;;;22.20;;
58338;SDS011;48278;52.704;6.536;2023-03-01T06:48:04;69.70;;;22.92;;
58338;SDS011;48278;52.704;6.536;2023-03-01T06:50:31;65.88;;;21.67;;
58338;SDS011;48278;52.704;6.536;2023-03-01T06:52:57;66.57;;;22.77;;
58338;SDS011;48278;52.704;6.536;2023-03-01T06:55:23;70.60;;;23.63;;
58338;SDS011;48278;52.704;6.536;2023-03-01T06:57:53;65.43;;;23.08;;
58338;SDS011;48278;52.704;6.536;2023-03-01T07:00:22;72.97;;;24.60;;
58338;SDS011;48278;52.704;6.536;2023-03-01T07:02:49;77.57;;;25.15;;
58338;SDS011;48278;52.704;6.536;2023-03-01T07:05:15;72.20;;;25.27;;
58338;SDS011;48278;52.704;6.536;2023-03-01T07:07:44;70.65;;;25.98;;
58338;SDS011;48278;52.704;6.536;2023-03-01T07:10:11;82.45;;;25.73;;
58338;SDS011;48278;52.704;6.536;2023-03-01T07:12:37;72.03;;;25.40;;
58338;SDS011;48278;52.704;6.536;2023-03-01T07:15:03;77.75;;;26.45;;
58338;SDS011;48278;52.704;6.536;2023-03-01T07:17:29;80.45;;;27.00;;
58338;SDS011;48278;52.704;6.536;2023-03-01T07:19:55;79.97;;;28.10;;
58338;SDS011;48278;52.704;6.536;2023-03-01T07:22:21;86.10;;;28.58;;
58338;SDS011;48278;52.704;6.536;2023-03-01T07:24:47;83.40;;;28.38;;
58338;SDS011;48278;52.704;6.536;2023-03-01T07:27:13;101.88;;;37.53;;
58338;SDS011;48278;52.704;6.536;2023-03-01T07:29:39;98.40;;;39.20;;
58338;SDS011;48278;52.704;6.536;2023-03-01T07:32:05;98.40;;;37.13;;
58338;SDS011;48278;52.704;6.536;2023-03-01T07:34:31;90.32;;;30.55;;
58338;SDS011;48278;52.704;6.536;2023-03-01T07:36:57;87.82;;;30.10;;
58338;SDS011;48278;52.704;6.536;2023-03-01T07:39:23;103.10;;;33.22;;
58338;SDS011;48278;52.704;6.536;2023-03-01T07:41:50;119.05;;;37.75;;
58338;SDS011;48278;52.704;6.536;2023-03-01T07:44:16;121.70;;;36.85;;
58338;SDS011;48278;52.704;6.536;2023-03-01T07:46:42;108.65;;;34.80;;
58338;SDS011;48278;52.704;6.536;2023-03-01T07:49:08;109.00;;;35.53;;
58338;SDS011;48278;52.704;6.536;2023-03-01T07:51:34;108.03;;;34.80;;
58338;SDS011;48278;52.704;6.536;2023-03-01T07:54:00;113.50;;;35.22;;
58338;SDS011;48278;52.704;6.536;2023-03-01T07:56:26;108.13;;;35.53;;
58338;SDS011;48278;52.704;6.536;2023-03-01T07:58:51;91.00;;;32.58;;
58338;SDS011;48278;52.704;6.536;2023-03-01T08:01:18;87.68;;;31.25;;
58338;SDS011;48278;52.704;6.536;2023-03-01T08:03:45;90.10;;;32.60;;
58338;SDS011;48278;52.704;6.536;2023-03-01T08:06:12;89.82;;;31.80;;
58338;SDS011;48278;52.704;6.536;2023-03-01T08:08:39;96.78;;;33.78;;
58338;SDS011;48278;52.704;6.536;2023-03-01T08:11:05;90.32;;;32.97;;
58338;SDS011;48278;52.704;6.536;2023-03-01T08:13:32;98.90;;;32.40;;
58338;SDS011;48278;52.704;6.536;2023-03-01T08:16:01;90.97;;;34.83;;
58338;SDS011;48278;52.704;6.536;2023-03-01T08:18:28;88.13;;;33.38;;
58338;SDS011;48278;52.704;6.536;2023-03-01T08:20:54;90.75;;;32.58;;
58338;SDS011;48278;52.704;6.536;2023-03-01T08:23:19;86.90;;;32.22;;
58338;SDS011;48278;52.704;6.536;2023-03-01T08:25:45;92.43;;;33.35;;
58338;SDS011;48278;52.704;6.536;2023-03-01T08:28:11;92.32;;;34.63;;
58338;SDS011;48278;52.704;6.536;2023-03-01T08:30:37;101.13;;;33.95;;
58338;SDS011;48278;52.704;6.536;2023-03-01T08:33:02;91.70;;;31.67;;
58338;SDS011;48278;52.704;6.536;2023-03-01T08:35:28;100.07;;;33.75;;
58338;SDS011;48278;52.704;6.536;2023-03-01T08:37:54;102.85;;;33.25;;
58338;SDS011;48278;52.704;6.536;2023-03-01T08:40:19;83.63;;;30.80;;
58338;SDS011;48278;52.704;6.536;2023-03-01T08:42:45;92.85;;;31.20;;
58338;SDS011;48278;52.704;6.536;2023-03-01T08:45:11;103.00;;;34.33;;
58338;SDS011;48278;52.704;6.536;2023-03-01T08:47:39;82.10;;;27.52;;
58338;SDS011;48278;52.704;6.536;2023-03-01T08:50:05;74.88;;;27.73;;
58338;SDS011;48278;52.704;6.536;2023-03-01T08:52:31;82.22;;;28.17;;
58338;SDS011;48278;52.704;6.536;2023-03-01T08:54:58;87.30;;;27.40;;
58338;SDS011;48278;52.704;6.536;2023-03-01T08:57:26;72.25;;;28.63;;
58338;SDS011;48278;52.704;6.536;2023-03-01T08:59:52;77.03;;;28.77;;
58338;SDS011;48278;52.704;6.536;2023-03-01T09:02:20;70.85;;;28.35;;
58338;SDS011;48278;52.704;6.536;2023-03-01T09:04:46;80.07;;;29.38;;
58338;SDS011;48278;52.704;6.536;2023-03-01T09:07:12;75.75;;;29.98;;
58338;SDS011;48278;52.704;6.536;2023-03-01T09:09:38;77.63;;;28.38;;
58338;SDS011;48278;52.704;6.536;2023-03-01T09:12:03;84.80;;;29.77;;
58338;SDS011;48278;52.704;6.536;2023-03-01T09:14:30;83.10;;;29.63;;
58338;SDS011;48278;52.704;6.536;2023-03-01T09:16:55;73.32;;;26.58;;
58338;SDS011;48278;52.704;6.536;2023-03-01T09:19:21;66.32;;;22.58;;
58338;SDS011;48278;52.704;6.536;2023-03-01T09:21:47;61.30;;;20.65;;
58338;SDS011;48278;52.704;6.536;2023-03-01T09:24:21;59.88;;;20.92;;
58338;SDS011;48278;52.704;6.536;2023-03-01T09:26:49;63.55;;;20.23;;
58338;SDS011;48278;52.704;6.536;2023-03-01T09:29:17;59.97;;;21.00;;
58338;SDS011;48278;52.704;6.536;2023-03-01T09:31:43;55.25;;;19.90;;
58338;SDS011;48278;52.704;6.536;2023-03-01T09:34:09;52.72;;;20.13;;
58338;SDS011;48278;52.704;6.536;2023-03-01T09:36:35;58.97;;;19.30;;
58338;SDS011;48278;52.704;6.536;2023-03-01T09:39:02;45.03;;;15.07;;
58338;SDS011;48278;52.704;6.536;2023-03-01T09:41:47;48.75;;;14.55;;
58338;SDS011;48278;52.704;6.536;2023-03-01T09:44:23;41.20;;;14.18;;
58338;SDS011;48278;52.704;6.536;2023-03-01T09:47:01;45.17;;;15.45;;
58338;SDS011;48278;52.704;6.536;2023-03-01T09:49:29;46.28;;;16.70;;
58338;SDS011;48278;52.704;6.536;2023-03-01T09:54:46;28.58;;;9.25;;
58338;SDS011;48278;52.704;6.536;2023-03-01T09:57:18;34.17;;;9.20;;
58338;SDS011;48278;52.704;6.536;2023-03-01T10:02:44;31.60;;;9.82;;
58338;SDS011;48278;52.704;6.536;2023-03-01T10:10:56;32.90;;;9.63;;
58338;SDS011;48278;52.704;6.536;2023-03-01T10:19:01;31.75;;;9.73;;
58338;SDS011;48278;52.704;6.536;2023-03-01T10:21:29;28.88;;;11.23;;
58338;SDS011;48278;52.704;6.536;2023-03-01T10:23:58;24.50;;;8.50;;
58338;SDS011;48278;52.704;6.536;2023-03-01T10:26:39;25.17;;;6.90;;
58338;SDS011;48278;52.704;6.536;2023-03-01T10:30:20;31.08;;;9.43;;
58338;SDS011;48278;52.704;6.536;2023-03-01T10:32:29;31.02;;;9.27;;
58338;SDS011;48278;52.704;6.536;2023-03-01T10:34:55;29.80;;;11.30;;
58338;SDS011;48278;52.704;6.536;2023-03-01T10:37:22;34.75;;;12.07;;
58338;SDS011;48278;52.704;6.536;2023-03-01T10:39:54;29.02;;;10.13;;
58338;SDS011;48278;52.704;6.536;2023-03-01T10:42:35;31.95;;;9.63;;
58338;SDS011;48278;52.704;6.536;2023-03-01T10:45:15;27.55;;;8.88;;
58338;SDS011;48278;52.704;6.536;2023-03-01T10:51:14;26.40;;;8.15;;
58338;SDS011;48278;52.704;6.536;2023-03-01T10:53:42;33.85;;;9.80;;
58338;SDS011;48278;52.704;6.536;2023-03-01T10:56:15;28.35;;;9.93;;
58338;SDS011;48278;52.704;6.536;2023-03-01T10:58:56;27.73;;;8.43;;
58338;SDS011;48278;52.704;6.536;2023-03-01T11:01:34;25.75;;;8.73;;
58338;SDS011;48278;52.704;6.536;2023-03-01T11:06:32;26.05;;;8.85;;
58338;SDS011;48278;52.704;6.536;2023-03-01T11:11:40;17.98;;;6.78;;
58338;SDS011;48278;52.704;6.536;2023-03-01T11:14:16;22.05;;;7.20;;
58338;SDS011;48278;52.704;6.536;2023-03-01T11:16:47;19.50;;;7.03;;
58338;SDS011;48278;52.704;6.536;2023-03-01T11:19:22;19.73;;;6.35;;
58338;SDS011;48278;52.704;6.536;2023-03-01T11:21:57;22.10;;;7.22;;
58338;SDS011;48278;52.704;6.536;2023-03-01T11:24:29;21.02;;;6.03;;
58338;SDS011;48278;52.704;6.536;2023-03-01T11:27:06;20.92;;;6.90;;
58338;SDS011;48278;52.704;6.536;2023-03-01T11:32:53;16.73;;;6.28;;
58338;SDS011;48278;52.704;6.536;2023-03-01T11:35:27;19.30;;;7.30;;
58338;SDS011;48278;52.704;6.536;2023-03-01T11:40:42;19.65;;;7.28;;
58338;SDS011;48278;52.704;6.536;2023-03-01T11:43:15;20.05;;;7.07;;
58338;SDS011;48278;52.704;6.536;2023-03-01T11:48:22;19.95;;;6.28;;
58338;SDS011;48278;52.704;6.536;2023-03-01T11:51:09;19.98;;;6.65;;
58338;SDS011;48278;52.704;6.536;2023-03-01T11:53:50;21.83;;;5.80;;
58338;SDS011;48278;52.704;6.536;2023-03-01T11:59:45;17.63;;;6.85;;
58338;SDS011;48278;52.704;6.536;2023-03-01T12:10:22;22.40;;;7.65;;
58338;SDS011;48278;52.704;6.536;2023-03-01T12:15:29;22.13;;;7.30;;
58338;SDS011;48278;52.704;6.536;2023-03-01T12:21:01;23.50;;;7.93;;
58338;SDS011;48278;52.704;6.536;2023-03-01T12:26:35;21.05;;;8.15;;
58338;SDS011;48278;52.704;6.536;2023-03-01T12:32:02;21.80;;;7.43;;
58338;SDS011;48278;52.704;6.536;2023-03-01T12:43:42;22.40;;;8.27;;
58338;SDS011;48278;52.704;6.536;2023-03-01T12:47:14;17.88;;;7.25;;
58338;SDS011;48278;52.704;6.536;2023-03-01T12:49:31;19.52;;;7.22;;
58338;SDS011;48278;52.704;6.536;2023-03-01T12:55:08;18.15;;;7.30;;
58338;SDS011;48278;52.704;6.536;2023-03-01T12:57:53;20.02;;;7.05;;
58338;SDS011;48278;52.704;6.536;2023-03-01T13:00:37;23.65;;;6.93;;
58338;SDS011;48278;52.704;6.536;2023-03-01T13:07:02;22.02;;;7.53;;
58338;SDS011;48278;52.704;6.536;2023-03-01T13:12:00;21.42;;;8.00;;
58338;SDS011;48278;52.704;6.536;2023-03-01T13:16:51;18.83;;;7.55;;
58338;SDS011;48278;52.704;6.536;2023-03-01T13:19:19;22.98;;;7.68;;
58338;SDS011;48278;52.704;6.536;2023-03-01T13:21:50;19.40;;;7.68;;
58338;SDS011;48278;52.704;6.536;2023-03-01T13:24:35;17.23;;;6.30;;
58338;SDS011;48278;52.704;6.536;2023-03-01T13:29:46;24.20;;;7.78;;
58338;SDS011;48278;52.704;6.536;2023-03-01T13:32:29;21.02;;;8.05;;
58338;SDS011;48278;52.704;6.536;2023-03-01T13:35:03;20.40;;;8.40;;
58338;SDS011;48278;52.704;6.536;2023-03-01T13:41:09;19.83;;;7.72;;
58338;SDS011;48278;52.704;6.536;2023-03-01T13:43:36;19.65;;;7.65;;
58338;SDS011;48278;52.704;6.536;2023-03-01T13:48:45;16.92;;;6.72;;
58338;SDS011;48278;52.704;6.536;2023-03-01T13:51:15;21.63;;;7.10;;
58338;SDS011;48278;52.704;6.536;2023-03-01T13:53:46;19.00;;;6.90;;
58338;SDS011;48278;52.704;6.536;2023-03-01T13:56:13;20.00;;;8.38;;
58338;SDS011;48278;52.704;6.536;2023-03-01T13:58:49;22.02;;;7.93;;
58338;SDS011;48278;52.704;6.536;2023-03-01T14:01:23;19.38;;;7.18;;
58338;SDS011;48278;52.704;6.536;2023-03-01T14:06:16;21.17;;;7.15;;
58338;SDS011;48278;52.704;6.536;2023-03-01T14:08:48;15.73;;;6.57;;
58338;SDS011;48278;52.704;6.536;2023-03-01T14:19:39;23.55;;;7.72;;
58338;SDS011;48278;52.704;6.536;2023-03-01T14:22:20;18.13;;;6.70;;
58338;SDS011;48278;52.704;6.536;2023-03-01T14:24:58;18.10;;;6.85;;
58338;SDS011;48278;52.704;6.536;2023-03-01T14:27:50;20.40;;;7.63;;
58338;SDS011;48278;52.704;6.536;2023-03-01T14:30:19;21.33;;;7.35;;
58338;SDS011;48278;52.704;6.536;2023-03-01T14:32:53;14.73;;;6.30;;
58338;SDS011;48278;52.704;6.536;2023-03-01T14:35:22;18.02;;;6.90;;
58338;SDS011;48278;52.704;6.536;2023-03-01T14:37:50;22.90;;;8.23;;
58338;SDS011;48278;52.704;6.536;2023-03-01T14:40:24;20.80;;;7.75;;
58338;SDS011;48278;52.704;6.536;2023-03-01T14:42:53;20.52;;;8.05;;
58338;SDS011;48278;52.704;6.536;2023-03-01T14:45:21;21.63;;;8.32;;
58338;SDS011;48278;52.704;6.536;2023-03-01T14:47:50;22.95;;;8.98;;
58338;SDS011;48278;52.704;6.536;2023-03-01T14:52:53;22.02;;;8.27;;
58338;SDS011;48278;52.704;6.536;2023-03-01T14:55:28;20.42;;;8.50;;
58338;SDS011;48278;52.704;6.536;2023-03-01T14:57:57;23.88;;;9.60;;
58338;SDS011;48278;52.704;6.536;2023-03-01T15:00:27;21.63;;;9.18;;
58338;SDS011;48278;52.704;6.536;2023-03-01T15:02:55;20.33;;;8.43;;
58338;SDS011;48278;52.704;6.536;2023-03-01T15:05:27;22.13;;;9.07;;
58338;SDS011;48278;52.704;6.536;2023-03-01T15:08:00;24.48;;;8.73;;
58338;SDS011;48278;52.704;6.536;2023-03-01T15:10:28;21.42;;;8.52;;
58338;SDS011;48278;52.704;6.536;2023-03-01T15:13:09;26.48;;;9.15;;
58338;SDS011;48278;52.704;6.536;2023-03-01T15:15:43;21.50;;;9.10;;
58338;SDS011;48278;52.704;6.536;2023-03-01T15:18:27;22.42;;;8.15;;
58338;SDS011;48278;52.704;6.536;2023-03-01T15:20:54;19.65;;;8.75;;
58338;SDS011;48278;52.704;6.536;2023-03-01T15:23:30;26.13;;;8.82;;
58338;SDS011;48278;52.704;6.536;2023-03-01T15:25:56;23.45;;;9.02;;
58338;SDS011;48278;52.704;6.536;2023-03-01T15:28:24;24.88;;;9.77;;
58338;SDS011;48278;52.704;6.536;2023-03-01T15:31:26;24.00;;;9.30;;
58338;SDS011;48278;52.704;6.536;2023-03-01T15:33:46;25.77;;;8.60;;
58338;SDS011;48278;52.704;6.536;2023-03-01T15:42:11;24.63;;;9.48;;
58338;SDS011;48278;52.704;6.536;2023-03-01T15:45:11;26.92;;;9.27;;
58338;SDS011;48278;52.704;6.536;2023-03-01T15:47:52;25.15;;;10.00;;
58338;SDS011;48278;52.704;6.536;2023-03-01T15:50:23;29.08;;;10.25;;
58338;SDS011;48278;52.704;6.536;2023-03-01T15:52:50;25.63;;;9.32;;
58338;SDS011;48278;52.704;6.536;2023-03-01T15:55:17;26.67;;;9.13;;
58338;SDS011;48278;52.704;6.536;2023-03-01T15:57:45;20.73;;;8.82;;
58338;SDS011;48278;52.704;6.536;2023-03-01T16:02:39;21.20;;;7.68;;
58338;SDS011;48278;52.704;6.536;2023-03-01T16:05:09;22.10;;;8.60;;
58338;SDS011;48278;52.704;6.536;2023-03-01T16:07:41;25.27;;;9.32;;
58338;SDS011;48278;52.704;6.536;2023-03-01T16:10:07;21.30;;;8.90;;
58338;SDS011;48278;52.704;6.536;2023-03-01T16:12:33;24.10;;;9.40;;
58338;SDS011;48278;52.704;6.536;2023-03-01T16:14:59;23.40;;;9.55;;
58338;SDS011;48278;52.704;6.536;2023-03-01T16:17:24;25.67;;;8.77;;
58338;SDS011;48278;52.704;6.536;2023-03-01T16:19:50;20.65;;;8.18;;
58338;SDS011;48278;52.704;6.536;2023-03-01T16:22:16;23.48;;;9.20;;
58338;SDS011;48278;52.704;6.536;2023-03-01T16:24:42;22.13;;;9.13;;
58338;SDS011;48278;52.704;6.536;2023-03-01T16:27:08;24.40;;;8.75;;
58338;SDS011;48278;52.704;6.536;2023-03-01T16:29:33;24.52;;;8.77;;
58338;SDS011;48278;52.704;6.536;2023-03-01T16:32:00;22.52;;;9.02;;
58338;SDS011;48278;52.704;6.536;2023-03-01T16:34:26;29.25;;;9.88;;
58338;SDS011;48278;52.704;6.536;2023-03-01T16:36:52;27.50;;;10.27;;
58338;SDS011;48278;52.704;6.536;2023-03-01T16:39:18;27.35;;;9.52;;